Time;durP1;ratioP1;P1;durP2;ratioP2;P2;SDS_P1;SDS_P2;PMS_P1;PMS_P2;Temp;Humidity;BMP_temperature;BMP_pressure;BME280_temperature;BME280_humidity;BME280_pressure;Samples;Min_cycle;Max_cycle;Signal;HPM_P1;HPM_P2
2022/08/12 00:44:39;;;;;;;11.27;5.00;;;27.40;48.40;;;;;;5016354;28;20182;-92
2022/08/12 00:47:07;;;;;;;7.67;4.13;;;27.40;48.20;;;;;;5038008;28;20213;-92
2022/08/12 00:49:35;;;;;;;9.63;4.13;;;27.40;47.80;;;;;;5037226;28;20222;-91
2022/08/12 00:52:08;;;;;;;11.27;4.57;;;27.30;48.10;;;;;;5055238;28;20201;-93
2022/08/12 00:54:38;;;;;;;13.17;5.13;;;27.30;48.30;;;;;;5055108;28;20209;-93
2022/08/12 00:57:07;;;;;;;8.70;3.77;;;27.30;48.50;;;;;;5029798;28;20248;-91
2022/08/12 00:59:35;;;;;;;11.17;5.07;;;27.30;48.50;;;;;;5033537;28;20219;-92
2022/08/12 01:02:06;;;;;;;8.53;4.03;;;27.20;48.50;;;;;;5015047;28;20210;-91
2022/08/12 01:13:03;;;;;;;8.40;4.37;;;27.10;48.50;;;;;;4941343;28;20203;-91
2022/08/12 01:15:30;;;;;;;8.77;4.53;;;27.10;48.60;;;;;;4995840;28;20635;-91
2022/08/12 01:18:00;;;;;;;8.70;4.33;;;27.00;48.60;;;;;;5021377;28;20287;-92
2022/08/12 01:20:40;;;;;;;9.80;4.70;;;27.00;48.90;;;;;;5025878;28;21033;-91
2022/08/12 01:23:34;;;;;;;8.20;4.17;;;27.00;49.20;;;;;;5011480;28;20216;-91
2022/08/12 01:26:06;;;;;;;8.53;4.00;;;27.00;49.00;;;;;;5011295;28;21076;-91
2022/08/12 01:29:00;;;;;;;12.47;5.07;;;27.00;48.90;;;;;;5010862;28;20201;-91
2022/08/12 01:31:48;;;;;;;7.57;3.87;;;27.00;48.80;;;;;;5011079;28;20256;-91
2022/08/12 01:34:22;;;;;;;9.43;5.00;;;26.90;48.90;;;;;;5012344;28;20642;-91
2022/08/12 01:37:13;;;;;;;14.40;6.30;;;26.90;48.90;;;;;;5010806;28;20249;-92
2022/08/12 01:39:43;;;;;;;10.30;5.53;;;26.90;49.60;;;;;;5005512;28;20205;-91
2022/08/12 01:42:13;;;;;;;7.03;3.93;;;26.80;49.20;;;;;;5028966;28;20312;-92
2022/08/12 01:44:41;;;;;;;9.40;4.80;;;26.80;49.30;;;;;;5031147;28;20209;-90
2022/08/12 01:47:22;;;;;;;8.40;4.37;;;26.80;49.00;;;;;;5028692;28;20204;-91
2022/08/12 01:50:07;;;;;;;8.63;4.40;;;26.80;49.50;;;;;;5030912;28;20228;-91
2022/08/12 01:52:55;;;;;;;8.17;4.33;;;26.70;49.60;;;;;;5018971;28;20646;-92
2022/08/12 01:55:24;;;;;;;8.10;4.37;;;26.70;49.60;;;;;;5010114;28;20291;-91
2022/08/12 01:58:03;;;;;;;9.47;5.20;;;26.70;49.10;;;;;;5010778;28;20220;-91
2022/08/12 02:00:47;;;;;;;8.70;4.23;;;26.70;49.80;;;;;;5011671;28;20209;-92
2022/08/12 02:13:02;;;;;;;11.23;5.00;;;26.50;49.80;;;;;;5026131;28;20618;-90
2022/08/12 02:15:43;;;;;;;8.90;5.20;;;26.50;50.20;;;;;;5020485;28;20209;-88
2022/08/12 02:18:24;;;;;;;8.90;4.73;;;26.50;50.30;;;;;;5020467;28;20247;-91
2022/08/12 02:21:00;;;;;;;10.47;5.30;;;26.40;50.30;;;;;;5030716;28;20739;-90
2022/08/12 02:23:28;;;;;;;11.50;5.37;;;26.40;50.30;;;;;;5027639;28;20626;-91
2022/08/12 02:26:03;;;;;;;8.50;4.73;;;26.40;50.30;;;;;;5027617;28;20212;-91
2022/08/12 02:28:31;;;;;;;9.27;4.87;;;26.40;50.40;;;;;;5028110;28;20817;-92
2022/08/12 02:31:04;;;;;;;12.03;5.60;;;26.30;50.30;;;;;;5028279;28;20625;-89
2022/08/12 02:33:32;;;;;;;10.47;5.40;;;26.30;50.60;;;;;;5034567;28;20243;-89
2022/08/12 02:36:01;;;;;;;10.40;5.33;;;26.30;50.50;;;;;;5037515;28;20233;-91
2022/08/12 02:38:30;;;;;;;7.23;4.53;;;26.30;50.70;;;;;;5029531;28;20212;-91
2022/08/12 02:41:02;;;;;;;8.47;4.40;;;26.20;50.70;;;;;;5011842;28;20625;-91
2022/08/12 02:43:36;;;;;;;6.27;3.97;;;26.20;50.90;;;;;;5018399;28;20247;-92
2022/08/12 02:46:09;;;;;;;9.77;5.03;;;26.20;51.10;;;;;;5030978;28;20189;-92
2022/08/12 02:48:44;;;;;;;11.07;5.63;;;26.10;51.00;;;;;;5011203;28;20217;-90
2022/08/12 02:51:16;;;;;;;7.73;4.70;;;26.10;51.10;;;;;;5011054;28;20294;-91
2022/08/12 02:53:44;;;;;;;10.47;4.67;;;26.10;51.00;;;;;;5017568;28;20224;-92
2022/08/12 02:56:12;;;;;;;10.57;4.90;;;26.10;51.00;;;;;;4999424;28;20205;-91
2022/08/12 02:58:40;;;;;;;8.07;4.93;;;26.00;51.10;;;;;;5009990;28;20246;-91
2022/08/12 03:01:09;;;;;;;8.20;4.57;;;26.00;51.10;;;;;;5010315;28;20236;-91
2022/08/12 03:03:38;;;;;;;11.67;5.23;;;26.00;51.10;;;;;;5010532;28;20295;-90
2022/08/12 03:06:08;;;;;;;10.73;5.30;;;26.00;51.00;;;;;;5031013;28;20235;-92
2022/08/12 03:08:41;;;;;;;7.30;4.37;;;25.90;51.10;;;;;;5010543;28;20201;-91
2022/08/12 03:11:16;;;;;;;9.50;5.47;;;25.90;51.20;;;;;;5010162;28;20264;-91
2022/08/12 03:13:53;;;;;;;7.00;4.00;;;25.90;51.30;;;;;;5010339;28;20653;-91
2022/08/12 03:16:26;;;;;;;7.97;4.43;;;25.90;51.20;;;;;;5029791;28;20747;-91
2022/08/12 03:21:36;;;;;;;13.93;6.80;;;25.80;51.20;;;;;;4998763;28;20293;-90
2022/08/12 03:24:05;;;;;;;11.97;5.83;;;25.80;51.20;;;;;;5010216;28;20281;-91
2022/08/12 03:26:36;;;;;;;8.70;4.63;;;25.70;51.30;;;;;;5022812;22;20638;-91
2022/08/12 03:29:05;;;;;;;11.87;6.03;;;25.70;51.60;;;;;;5027927;28;20200;-90
2022/08/12 03:34:22;;;;;;;10.80;5.30;;;25.70;51.90;;;;;;5022761;22;20224;-91
2022/08/12 03:36:53;;;;;;;9.53;5.30;;;25.60;51.70;;;;;;5014211;28;20243;-90
2022/08/12 03:39:43;;;;;;;6.93;4.27;;;25.60;51.70;;;;;;5010186;28;20265;-91
2022/08/12 03:42:20;;;;;;;7.77;4.47;;;25.60;52.00;;;;;;4998167;28;20213;-92
2022/08/12 04:01:58;;;;;;;8.23;4.73;;;25.30;51.90;;;;;;4991593;28;20204;-91
2022/08/12 04:04:27;;;;;;;10.30;5.53;;;25.30;51.80;;;;;;4989171;28;20298;-90
2022/08/12 04:07:11;;;;;;;11.83;5.63;;;25.30;51.90;;;;;;4989926;28;20205;-91
2022/08/12 04:09:41;;;;;;;8.87;4.93;;;25.20;52.40;;;;;;4989240;28;20217;-91
2022/08/12 04:15:01;;;;;;;8.57;4.23;;;25.20;52.70;;;;;;4989353;28;20670;-91
2022/08/12 04:17:30;;;;;;;8.80;4.87;;;25.10;52.30;;;;;;4973692;28;20210;-91
2022/08/12 04:20:24;;;;;;;10.90;5.63;;;25.10;52.20;;;;;;4983203;28;20217;-90
2022/08/12 04:22:53;;;;;;;10.37;4.53;;;25.10;52.40;;;;;;4989027;28;20208;-91
2022/08/12 04:25:40;;;;;;;11.77;6.13;;;25.00;52.20;;;;;;4987764;28;20324;-91
2022/08/12 04:28:10;;;;;;;10.43;5.50;;;25.00;52.60;;;;;;4969399;28;20213;-91
2022/08/12 04:30:40;;;;;;;10.27;4.80;;;25.00;52.40;;;;;;4981287;28;20239;-90
2022/08/12 04:33:08;;;;;;;8.27;4.73;;;24.90;52.40;;;;;;4988060;28;20249;-90
2022/08/12 04:35:36;;;;;;;9.27;4.93;;;24.90;52.60;;;;;;4986538;28;20256;-90
2022/08/12 04:38:05;;;;;;;9.63;5.20;;;24.90;52.70;;;;;;4989120;28;20661;-91
2022/08/12 04:40:35;;;;;;;11.07;5.00;;;24.80;52.80;;;;;;4987018;28;20721;-90
2022/08/12 04:43:04;;;;;;;8.60;5.10;;;24.80;52.80;;;;;;4988518;28;20720;-91
2022/08/12 04:45:39;;;;;;;12.00;5.63;;;24.80;52.80;;;;;;4985809;28;20280;-90
2022/08/12 04:48:15;;;;;;;12.67;5.73;;;24.80;53.00;;;;;;4986769;28;20212;-90
2022/08/12 04:50:44;;;;;;;10.33;5.53;;;24.70;52.70;;;;;;4979742;28;20272;-91
2022/08/12 04:53:13;;;;;;;14.63;6.13;;;24.70;52.80;;;;;;4988033;28;20234;-90
2022/08/12 04:55:44;;;;;;;9.40;5.13;;;24.70;52.90;;;;;;4993678;28;20206;-89
2022/08/12 05:01:04;;;;;;;10.57;5.60;;;24.70;53.50;;;;;;4966661;28;20206;-90
2022/08/12 05:03:31;;;;;;;11.17;5.40;;;24.60;53.20;;;;;;4984311;28;20211;-89
2022/08/12 05:06:37;;;;;;;12.43;5.80;;;24.60;53.30;;;;;;4987123;28;20546;-89
2022/08/12 05:09:06;;;;;;;9.73;5.00;;;24.60;53.80;;;;;;4985205;28;20566;-90
2022/08/12 05:11:33;;;;;;;14.23;6.27;;;24.60;53.40;;;;;;4987916;28;20232;-90
2022/08/12 05:14:03;;;;;;;11.13;5.00;;;24.50;53.40;;;;;;4987154;28;20221;-88
2022/08/12 05:16:30;;;;;;;9.83;5.03;;;24.50;53.60;;;;;;4995431;28;20202;-88
2022/08/12 05:18:59;;;;;;;9.10;4.80;;;24.50;53.50;;;;;;4992123;28;20789;-91
2022/08/12 05:21:27;;;;;;;7.30;4.50;;;24.50;53.60;;;;;;4990198;28;20694;-89
2022/08/12 05:23:54;;;;;;;8.57;4.83;;;24.50;53.60;;;;;;4988713;28;20209;-89
2022/08/12 05:26:23;;;;;;;8.80;4.47;;;24.50;53.50;;;;;;4988945;28;20207;-89
2022/08/12 05:28:52;;;;;;;8.77;4.97;;;24.50;53.60;;;;;;4988506;28;20218;-90
2022/08/12 05:31:38;;;;;;;11.87;5.77;;;24.50;53.50;;;;;;4991546;28;20222;-90
2022/08/12 05:34:05;;;;;;;8.90;4.47;;;24.40;54.00;;;;;;4982136;28;20276;-89
2022/08/12 05:36:33;;;;;;;12.00;5.47;;;24.50;54.00;;;;;;4992048;28;20245;-90
2022/08/12 05:39:00;;;;;;;10.37;5.30;;;24.50;54.10;;;;;;4990793;28;20236;-89
2022/08/12 05:41:33;;;;;;;13.63;6.00;;;24.50;54.20;;;;;;4989252;28;20234;-90
2022/08/12 05:44:05;;;;;;;10.17;5.27;;;24.50;54.50;;;;;;4991388;28;20309;-89
2022/08/12 05:46:33;;;;;;;12.30;6.10;;;24.50;54.40;;;;;;4992777;28;20271;-90
2022/08/12 05:49:01;;;;;;;12.60;5.27;;;24.50;54.50;;;;;;5010991;28;20210;-90
2022/08/12 05:51:29;;;;;;;12.03;5.70;;;24.50;54.50;;;;;;4992428;28;20311;-90
2022/08/12 05:53:57;;;;;;;11.50;5.13;;;24.60;54.60;;;;;;4991757;28;20212;-91
2022/08/12 05:56:26;;;;;;;8.13;4.80;;;24.50;54.50;;;;;;4989604;28;20205;-92
2022/08/12 05:58:55;;;;;;;11.13;5.50;;;24.60;54.70;;;;;;4990101;28;20293;-90
2022/08/12 06:01:25;;;;;;;12.37;6.43;;;24.60;54.50;;;;;;4990283;28;20257;-90
2022/08/12 06:03:53;;;;;;;8.33;4.70;;;24.60;54.60;;;;;;4990066;28;21029;-90
2022/08/12 06:06:21;;;;;;;9.93;5.00;;;24.70;54.50;;;;;;4990034;28;20286;-90
2022/08/12 06:08:54;;;;;;;10.17;5.27;;;24.60;54.30;;;;;;5008050;28;20205;-91
2022/08/12 06:11:21;;;;;;;12.23;5.57;;;24.70;54.50;;;;;;5018649;28;20264;-91
2022/08/12 06:13:48;;;;;;;12.40;6.07;;;24.70;54.30;;;;;;5014154;28;20292;-91
2022/08/12 06:16:21;;;;;;;12.50;5.73;;;24.70;54.40;;;;;;5017784;28;20194;-92
2022/08/12 06:18:49;;;;;;;9.23;5.33;;;24.80;54.70;;;;;;5012735;28;20210;-93
2022/08/12 06:21:20;;;;;;;14.27;5.97;;;24.80;54.60;;;;;;4998412;28;20345;-92
2022/08/12 06:23:47;;;;;;;11.37;5.77;;;24.80;54.50;;;;;;4991303;28;20206;-91
2022/08/12 06:26:24;;;;;;;11.77;5.83;;;24.90;54.50;;;;;;4992633;28;20198;-92
2022/08/12 06:29:09;;;;;;;11.67;5.90;;;24.90;54.70;;;;;;4995658;28;20761;-92
2022/08/12 06:31:39;;;;;;;13.10;6.20;;;25.00;54.70;;;;;;4993429;28;20232;-92
2022/08/12 06:34:07;;;;;;;12.53;5.70;;;25.00;54.30;;;;;;4993139;28;20214;-91
2022/08/12 06:36:34;;;;;;;13.97;6.07;;;25.00;54.30;;;;;;4992633;28;20618;-89
2022/08/12 06:39:19;;;;;;;15.33;6.27;;;25.10;54.30;;;;;;4991085;28;20246;-91
2022/08/12 06:44:33;;;;;;;11.40;6.07;;;25.20;54.20;;;;;;4992633;28;20737;-92
2022/08/12 06:47:05;;;;;;;16.43;6.30;;;25.30;54.20;;;;;;4991153;28;20323;-91
2022/08/12 06:49:35;;;;;;;9.53;5.23;;;25.30;54.20;;;;;;4991298;28;20706;-91
2022/08/12 06:52:23;;;;;;;10.97;5.87;;;25.40;53.90;;;;;;4990390;28;20345;-91
2022/08/12 06:54:54;;;;;;;13.07;6.03;;;25.40;54.10;;;;;;4986349;28;20281;-92
2022/08/12 06:57:22;;;;;;;17.37;7.80;;;25.40;53.80;;;;;;4971316;28;20211;-92
2022/08/12 06:59:49;;;;;;;14.93;6.07;;;25.50;53.80;;;;;;4971174;28;20254;-92
2022/08/12 07:02:40;;;;;;;;;;;;;;;;;;;;;
2022/08/12 07:05:14;;;;;;;17.80;7.87;;;25.60;53.70;;;;;;4972104;28;20211;-90
2022/08/12 07:07:45;;;;;;;15.97;6.67;;;25.70;53.70;;;;;;4989295;28;21024;-91
2022/08/12 07:10:13;;;;;;;14.43;6.80;;;25.70;53.60;;;;;;4990630;28;20667;-91
2022/08/12 07:12:41;;;;;;;14.73;7.17;;;25.80;53.50;;;;;;4990325;28;20240;-91
2022/08/12 07:15:09;;;;;;;16.40;6.70;;;25.80;53.50;;;;;;4990077;28;20276;-92
2022/08/12 07:17:40;;;;;;;16.10;7.07;;;25.90;53.50;;;;;;4990416;28;20623;-93
2022/08/12 07:20:10;;;;;;;12.07;6.27;;;26.00;53.30;;;;;;4989535;28;20236;-91
2022/08/12 07:23:03;;;;;;;17.43;8.63;;;26.00;53.30;;;;;;4981936;28;20210;-92
2022/08/12 07:25:35;;;;;;;12.67;7.17;;;26.10;53.20;;;;;;4990150;28;20205;-92
2022/08/12 07:28:04;;;;;;;12.33;7.20;;;26.20;52.90;;;;;;4990071;28;20206;-93
2022/08/12 07:30:56;;;;;;;12.97;7.40;;;26.30;52.50;;;;;;4990460;28;20881;-91
2022/08/12 07:33:29;;;;;;;12.63;7.03;;;26.40;52.40;;;;;;4990083;28;20265;-94
2022/08/12 07:36:02;;;;;;;16.33;7.70;;;26.40;52.40;;;;;;4990133;28;20320;-90
2022/08/12 07:38:42;;;;;;;13.50;7.57;;;26.50;52.10;;;;;;5003276;28;20236;-92
2022/08/12 07:41:12;;;;;;;11.87;7.03;;;26.50;51.60;;;;;;5011705;28;20248;-91
2022/08/12 07:43:44;;;;;;;23.40;7.97;;;26.60;51.80;;;;;;5015103;28;20229;-89
2022/08/12 07:46:19;;;;;;;14.50;6.93;;;26.70;51.70;;;;;;5013595;28;20272;-92
2022/08/12 07:48:49;;;;;;;13.53;6.83;;;26.70;51.70;;;;;;5011715;28;20933;-93
2022/08/12 07:51:18;;;;;;;17.87;8.33;;;26.80;51.50;;;;;;5000742;28;20202;-91
2022/08/12 07:53:45;;;;;;;15.20;7.20;;;26.90;51.70;;;;;;4990657;28;20206;-91
2022/08/12 07:56:12;;;;;;;11.70;6.63;;;27.00;51.50;;;;;;4990192;28;20335;-93
2022/08/12 07:58:41;;;;;;;13.03;7.80;;;27.00;51.20;;;;;;4993203;28;20567;-90
2022/08/12 08:01:10;;;;;;;11.07;6.50;;;27.10;51.20;;;;;;4999339;28;20210;-90
2022/08/12 08:04:54;;;;;;;9.80;6.13;;;27.20;50.90;;;;;;4993805;28;20240;-94
2022/08/12 08:06:27;;;;;;;13.73;7.53;;;27.30;50.90;;;;;;4991398;28;20284;-90
2022/08/12 08:08:55;;;;;;;12.07;6.70;;;27.40;50.60;;;;;;4992660;28;20210;-94
2022/08/12 08:14:09;;;;;;;11.90;6.60;;;27.50;50.40;;;;;;4997677;28;20365;-92
2022/08/12 08:16:36;;;;;;;13.33;6.90;;;27.60;50.20;;;;;;4993673;28;20233;-91
2022/08/12 08:19:04;;;;;;;8.50;5.97;;;27.70;49.90;;;;;;4993284;28;20210;-92
2022/08/12 08:21:52;;;;;;;11.83;5.90;;;27.80;50.00;;;;;;4990926;28;20206;-93
2022/08/12 08:24:19;;;;;;;12.07;7.23;;;27.90;49.70;;;;;;5069645;23;20237;-92
2022/08/12 08:26:48;;;;;;;8.87;5.83;;;28.00;49.90;;;;;;5009780;28;20239;-92
2022/08/12 08:29:16;;;;;;;13.37;6.63;;;28.00;49.70;;;;;;5009418;28;20653;-90
2022/08/12 08:31:49;;;;;;;19.67;8.57;;;28.10;49.60;;;;;;5007866;28;20686;-92
2022/08/12 08:34:18;;;;;;;20.90;7.87;;;28.20;49.40;;;;;;5008768;28;20253;-92
2022/08/12 08:36:45;;;;;;;9.97;6.07;;;28.30;49.10;;;;;;5007806;28;20275;-92
2022/08/12 08:44:38;;;;;;;15.20;6.43;;;28.60;48.70;;;;;;5008958;28;20272;-93
2022/08/12 08:47:22;;;;;;;10.67;6.13;;;28.70;48.50;;;;;;5008725;28;20201;-91
2022/08/12 08:52:30;;;;;;;13.03;6.47;;;28.90;48.50;;;;;;4994800;28;20233;-92
2022/08/12 08:54:57;;;;;;;15.47;8.00;;;29.00;48.20;;;;;;5008123;28;20209;-92
2022/08/12 08:57:26;;;;;;;13.53;6.73;;;29.10;47.50;;;;;;5008318;28;20638;-92
2022/08/12 08:59:53;;;;;;;14.60;6.83;;;29.20;47.50;;;;;;5008651;28;20201;-93
2022/08/12 09:02:23;;;;;;;10.60;6.30;;;29.40;47.40;;;;;;5009752;28;20209;-93
2022/08/12 09:04:50;;;;;;;16.77;6.73;;;29.50;47.60;;;;;;5010692;28;20202;-92
2022/08/12 09:07:17;;;;;;;11.13;5.73;;;29.60;47.40;;;;;;5012423;28;20267;-91
2022/08/12 09:09:58;;;;;;;;;;;;;;;;;;;;;
2022/08/12 09:15:11;;;;;;;9.88;5.35;;;30.30;46.70;;;;;;5019656;22;20580;-93
2022/08/12 09:17:39;;;;;;;8.15;5.15;;;30.60;47.00;;;;;;5012413;28;20563;-92
2022/08/12 09:20:08;;;;;;;13.77;5.93;;;30.90;46.70;;;;;;5019405;22;20252;-93
2022/08/12 09:22:35;;;;;;;10.82;6.25;;;31.10;46.20;;;;;;5012578;28;20194;-94
2022/08/12 09:25:05;;;;;;;13.10;6.05;;;31.40;46.00;;;;;;5011561;28;20237;-93
2022/08/12 09:27:36;;;;;;;13.90;7.03;;;31.70;46.10;;;;;;5009205;28;20267;-93
2022/08/12 09:30:05;;;;;;;9.82;5.88;;;32.00;44.60;;;;;;5011845;28;20263;-93
2022/08/12 09:32:36;;;;;;;12.23;6.82;;;32.30;43.90;;;;;;5011599;28;20600;-93
2022/08/12 09:37:45;;;;;;;25.83;12.55;;;32.80;44.20;;;;;;5001144;22;20275;-94
2022/08/12 09:40:18;;;;;;;12.40;5.82;;;33.10;42.90;;;;;;5004647;28;20900;-92
2022/08/12 09:45:35;;;;;;;15.77;5.85;;;33.60;42.00;;;;;;5012038;28;20588;-93
2022/08/12 09:48:06;;;;;;;10.98;4.65;;;33.80;41.90;;;;;;5004224;28;20233;-93
2022/08/12 09:50:41;;;;;;;10.00;6.07;;;34.10;41.80;;;;;;4990648;28;20288;-93
2022/08/12 09:53:12;;;;;;;12.98;5.13;;;34.30;41.70;;;;;;4993581;28;20408;-93
2022/08/12 09:55:42;;;;;;;9.15;5.20;;;34.50;41.00;;;;;;4992269;28;20650;-94
2022/08/12 09:58:28;;;;;;;10.13;5.45;;;34.80;39.60;;;;;;5029849;22;20738;-92
2022/08/12 10:00:58;;;;;;;10.55;5.53;;;35.00;37.30;;;;;;5050919;28;20246;-93
2022/08/12 10:05:53;;;;;;;8.48;4.45;;;35.40;38.80;;;;;;5103974;22;20264;-91
2022/08/12 10:08:21;;;;;;;8.10;4.70;;;35.50;38.00;;;;;;5019035;28;20212;-92
2022/08/12 10:13:43;;;;;;;11.27;6.40;;;35.80;36.10;;;;;;5017564;28;20372;-93
2022/08/12 10:16:19;;;;;;;8.05;4.60;;;36.00;36.40;;;;;;5001677;28;20205;-92
2022/08/12 10:18:48;;;;;;;10.93;5.93;;;36.20;36.70;;;;;;5008484;28;20302;-92
2022/08/12 10:21:18;;;;;;;8.18;4.50;;;36.30;36.50;;;;;;5001900;28;20201;-91
2022/08/12 10:24:20;;;;;;;9.90;5.75;;;36.50;35.90;;;;;;5019473;28;20190;-93
2022/08/12 10:29:38;;;;;;;7.57;4.47;;;36.80;35.60;;;;;;5011655;28;20209;-91
2022/08/12 10:32:22;;;;;;;6.32;4.15;;;37.00;34.60;;;;;;5011428;28;20597;-91
2022/08/12 10:34:50;;;;;;;5.65;4.18;;;37.10;33.30;;;;;;5010891;28;20630;-91
2022/08/12 10:37:19;;;;;;;6.47;4.25;;;37.30;35.10;;;;;;5010998;28;20293;-92
2022/08/12 10:39:47;;;;;;;11.52;4.38;;;37.40;34.30;;;;;;5011474;28;20309;-90
2022/08/12 10:45:06;;;;;;;7.32;3.40;;;37.70;33.50;;;;;;5014173;28;20208;-92
2022/08/12 10:47:35;;;;;;;5.88;4.20;;;37.80;32.70;;;;;;5012560;28;20260;-91
2022/08/12 10:50:21;;;;;;;8.98;4.40;;;37.90;32.70;;;;;;5010935;28;20203;-92
2022/08/12 10:52:48;;;;;;;7.07;4.95;;;38.10;32.10;;;;;;5010126;28;20244;-93
2022/08/12 10:55:16;;;;;;;10.93;5.70;;;38.20;33.20;;;;;;5010509;28;20212;-91
2022/08/12 11:00:32;;;;;;;7.75;4.57;;;38.40;32.60;;;;;;5009561;28;20209;-92
2022/08/12 11:03:00;;;;;;;5.35;3.72;;;38.60;31.20;;;;;;5008675;28;20212;-93
2022/08/12 11:05:30;;;;;;;9.43;5.18;;;38.60;32.40;;;;;;5011778;28;20275;-89
2022/08/12 11:08:11;;;;;;;6.40;4.35;;;38.80;31.70;;;;;;5010520;28;20206;-92
2022/08/12 11:10:39;;;;;;;5.93;4.43;;;38.90;31.20;;;;;;5010434;28;20240;-92
2022/08/12 11:13:07;;;;;;;6.85;4.72;;;39.00;30.60;;;;;;5011687;28;20229;-89
2022/08/12 11:15:39;;;;;;;8.48;5.35;;;39.00;30.50;;;;;;5011009;28;20202;-92
2022/08/12 11:18:07;;;;;;;6.22;4.05;;;39.10;30.00;;;;;;5010368;28;20213;-92
2022/08/12 11:20:34;;;;;;;11.02;4.65;;;39.20;30.60;;;;;;5010325;28;20694;-92
2022/08/12 11:23:06;;;;;;;9.10;5.70;;;39.30;30.40;;;;;;5190933;23;20904;-93
2022/08/12 11:31:09;;;;;;;9.75;4.70;;;39.50;29.00;;;;;;5138485;22;20242;-93
2022/08/12 11:33:40;;;;;;;6.22;4.45;;;39.60;28.90;;;;;;5006361;28;20234;-92
2022/08/12 11:36:20;;;;;;;9.70;3.72;;;39.60;28.40;;;;;;5004342;28;20194;-92
2022/08/12 11:38:47;;;;;;;5.05;3.72;;;39.70;28.20;;;;;;4992709;28;20214;-91
2022/08/12 11:41:14;;;;;;;5.07;4.05;;;39.70;29.00;;;;;;4992380;28;20214;-93
2022/08/12 11:43:47;;;;;;;8.40;4.90;;;39.70;28.80;;;;;;4992200;28;20210;-91
2022/08/12 11:46:18;;;;;;;9.45;4.43;;;39.90;28.40;;;;;;4992928;28;20218;-91
2022/08/12 11:49:00;;;;;;;10.13;6.03;;;40.00;28.30;;;;;;4991625;28;20301;-94
2022/08/12 11:51:27;;;;;;;14.88;7.35;;;40.00;28.50;;;;;;4990212;28;20268;-91
2022/08/12 11:54:01;;;;;;;7.70;4.82;;;40.00;28.60;;;;;;4990034;28;20233;-93
2022/08/12 11:56:31;;;;;;;5.72;4.03;;;40.10;28.00;;;;;;4991302;28;20741;-94
2022/08/12 11:58:58;;;;;;;9.38;4.28;;;40.10;28.30;;;;;;4990812;28;20782;-93
2022/08/12 12:01:30;;;;;;;12.35;6.55;;;40.20;27.90;;;;;;4989809;28;20296;-92
2022/08/12 12:03:58;;;;;;;7.43;4.93;;;40.30;27.50;;;;;;4988879;28;20206;-91
2022/08/12 12:06:26;;;;;;;7.60;4.93;;;40.30;27.70;;;;;;4990472;28;20202;-93
2022/08/12 12:08:54;;;;;;;9.38;5.20;;;40.40;27.70;;;;;;4990219;28;20190;-94
2022/08/12 12:11:22;;;;;;;5.30;4.18;;;40.40;27.60;;;;;;4991052;28;20237;-94
2022/08/12 12:13:49;;;;;;;6.22;4.78;;;40.40;27.50;;;;;;4990781;28;20332;-93
2022/08/12 12:16:28;;;;;;;11.30;6.22;;;40.50;27.20;;;;;;4989545;28;20264;-91
2022/08/12 12:18:57;;;;;;;8.02;4.28;;;40.60;27.10;;;;;;4989965;28;20198;-93
2022/08/12 12:21:24;;;;;;;7.65;4.95;;;40.60;27.20;;;;;;4987363;28;20198;-94
2022/08/12 12:23:52;;;;;;;7.82;4.25;;;40.60;27.20;;;;;;4989519;28;20195;-91
2022/08/12 12:26:19;;;;;;;4.78;4.05;;;40.60;26.90;;;;;;4990552;28;20201;-90
2022/08/12 12:28:49;;;;;;;7.15;5.00;;;40.70;26.70;;;;;;4990188;28;20292;-91
2022/08/12 12:31:18;;;;;;;7.85;5.03;;;40.70;26.90;;;;;;4990402;28;20213;-91
2022/08/12 12:33:50;;;;;;;13.43;5.68;;;40.80;26.70;;;;;;4988264;28;20826;-92
2022/08/12 12:36:20;;;;;;;8.23;4.43;;;40.90;27.30;;;;;;4988456;28;20616;-93
2022/08/12 12:38:47;;;;;;;11.15;5.35;;;40.90;26.80;;;;;;5005079;28;20218;-93
2022/08/12 12:41:14;;;;;;;10.95;4.60;;;41.00;26.80;;;;;;5010668;28;20213;-92
2022/08/12 12:43:43;;;;;;;9.43;4.68;;;41.00;26.50;;;;;;5009626;28;20210;-92
2022/08/12 12:46:11;;;;;;;5.50;4.25;;;41.10;25.90;;;;;;4999524;28;20194;-92
2022/08/12 12:48:47;;;;;;;10.52;6.85;;;41.20;26.00;;;;;;4997959;28;20216;-93
2022/08/12 12:51:25;;;;;;;8.90;5.22;;;41.20;25.60;;;;;;4993007;28;20194;-95
2022/08/12 12:53:55;;;;;;;8.63;5.47;;;41.30;26.40;;;;;;4979770;28;20253;-93
2022/08/12 12:56:23;;;;;;;8.93;4.13;;;41.40;26.10;;;;;;4985392;28;20622;-91
2022/08/12 12:58:54;;;;;;;5.35;4.15;;;41.50;26.20;;;;;;4989538;28;20201;-92
2022/08/12 13:01:24;;;;;;;9.93;5.30;;;41.60;25.90;;;;;;4994897;28;20225;-90
2022/08/12 13:03:59;;;;;;;6.95;4.40;;;41.70;25.80;;;;;;4998902;28;20654;-93
2022/08/12 13:06:31;;;;;;;8.50;4.50;;;41.80;24.90;;;;;;4993189;28;20634;-94
2022/08/12 13:09:02;;;;;;;6.22;4.55;;;41.80;25.20;;;;;;4993074;28;20206;-93
2022/08/12 13:11:29;;;;;;;7.40;4.57;;;41.90;25.20;;;;;;4993233;28;20306;-93
2022/08/12 13:13:58;;;;;;;6.22;4.65;;;41.90;24.90;;;;;;4991244;28;20252;-93
2022/08/12 13:16:29;;;;;;;8.85;4.53;;;41.90;24.60;;;;;;4992072;28;20221;-93
2022/08/12 13:19:22;;;;;;;8.27;5.30;;;41.90;24.80;;;;;;5002545;28;20199;-93
2022/08/12 13:24:34;;;;;;;8.23;5.00;;;42.00;24.70;;;;;;5000412;28;20260;-93
2022/08/12 13:27:19;;;;;;;4.95;3.67;;;42.00;24.70;;;;;;4992241;28;20623;-93
2022/08/12 13:29:53;;;;;;;7.25;4.90;;;42.10;24.50;;;;;;4987176;28;20206;-93
2022/08/12 13:32:20;;;;;;;6.32;4.68;;;42.10;24.40;;;;;;4988304;28;20202;-92
2022/08/12 13:34:52;;;;;;;12.25;5.22;;;42.20;24.50;;;;;;4987874;28;20225;-91
2022/08/12 13:37:30;;;;;;;7.22;5.43;;;42.20;24.50;;;;;;4986577;28;20198;-93
2022/08/12 13:40:00;;;;;;;6.28;4.38;;;42.20;24.30;;;;;;4987009;28;21089;-92
2022/08/12 13:42:30;;;;;;;9.10;5.30;;;42.20;24.70;;;;;;4987373;28;20277;-91
2022/08/12 13:44:57;;;;;;;9.25;5.38;;;42.30;24.50;;;;;;4986411;28;20213;-92
2022/08/12 13:50:11;;;;;;;8.38;4.95;;;42.40;24.60;;;;;;4975192;28;20229;-92
2022/08/12 13:52:39;;;;;;;5.85;4.35;;;42.40;24.30;;;;;;4991062;28;20210;-92
2022/08/12 13:55:07;;;;;;;8.52;5.05;;;42.50;24.20;;;;;;4991106;28;20242;-93
2022/08/12 13:57:43;;;;;;;8.93;5.95;;;42.60;24.20;;;;;;4989522;28;20202;-92
2022/08/12 14:00:44;;;;;;;5.22;3.97;;;42.60;23.90;;;;;;4990208;28;20198;-92
2022/08/12 14:03:15;;;;;;;6.25;4.40;;;42.60;23.80;;;;;;4972769;28;20194;-92
2022/08/12 14:05:42;;;;;;;5.15;4.15;;;42.60;24.20;;;;;;4989356;28;20202;-91
2022/08/12 14:08:13;;;;;;;7.47;4.93;;;42.60;24.20;;;;;;4990455;28;20221;-93
2022/08/12 14:10:45;;;;;;;5.95;4.00;;;42.70;24.30;;;;;;4990350;28;20217;-92
2022/08/12 14:13:15;;;;;;;7.25;4.90;;;42.70;24.30;;;;;;4990461;28;20221;-91
2022/08/12 14:15:46;;;;;;;7.72;5.65;;;42.70;24.30;;;;;;4991702;28;20209;-92
2022/08/12 14:18:18;;;;;;;8.45;4.78;;;42.80;24.10;;;;;;5005381;28;20218;-91
2022/08/12 14:21:00;;;;;;;7.35;5.15;;;42.70;23.90;;;;;;5003886;28;20285;-93
2022/08/12 14:23:35;;;;;;;7.65;5.38;;;42.70;23.80;;;;;;4998073;28;20265;-92
2022/08/12 14:26:08;;;;;;;5.45;4.28;;;42.70;23.40;;;;;;4996975;28;20241;-92
2022/08/12 14:28:37;;;;;;;6.40;4.25;;;42.70;23.60;;;;;;4991044;28;20246;-92
2022/08/12 14:31:06;;;;;;;9.27;5.10;;;42.70;23.70;;;;;;4990423;28;20242;-92
2022/08/12 14:33:35;;;;;;;7.95;4.25;;;42.60;24.00;;;;;;4991417;28;20719;-91
2022/08/12 14:36:05;;;;;;;6.22;4.57;;;42.70;23.70;;;;;;4992043;28;20206;-92
2022/08/12 14:38:38;;;;;;;5.90;4.25;;;42.70;23.40;;;;;;4989868;28;20285;-92
2022/08/12 14:41:06;;;;;;;6.45;4.43;;;42.70;23.40;;;;;;4991489;28;20627;-91
2022/08/12 14:43:37;;;;;;;5.32;4.07;;;42.70;23.30;;;;;;4991241;28;20252;-92
2022/08/12 14:46:10;;;;;;;7.65;4.63;;;42.60;23.30;;;;;;4991173;28;20659;-92
2022/08/12 14:48:43;;;;;;;6.78;4.82;;;42.60;23.10;;;;;;4987741;28;20645;-92
2022/08/12 14:51:19;;;;;;;5.53;4.53;;;42.50;23.10;;;;;;4991009;28;20213;-92
2022/08/12 14:56:49;;;;;;;7.50;5.15;;;42.50;23.00;;;;;;4990460;28;20211;-91
2022/08/12 15:02:31;;;;;;;5.18;4.40;;;42.40;23.10;;;;;;4989845;28;20791;-93
2022/08/12 15:04:59;;;;;;;9.07;5.18;;;42.40;23.00;;;;;;4990909;28;20212;-90
2022/08/12 15:07:27;;;;;;;6.05;4.38;;;42.30;23.10;;;;;;4990654;28;20196;-92
2022/08/12 15:09:55;;;;;;;8.68;5.72;;;42.20;23.30;;;;;;4992611;28;20233;-92
2022/08/12 15:12:22;;;;;;;7.03;4.93;;;42.10;23.40;;;;;;4994567;28;20617;-92
2022/08/12 15:15:01;;;;;;;6.53;4.38;;;42.00;23.30;;;;;;4990347;28;20226;-90
2022/08/12 15:17:31;;;;;;;7.15;4.25;;;41.90;23.60;;;;;;4991217;28;20194;-92
2022/08/12 15:20:02;;;;;;;10.30;4.32;;;41.70;23.20;;;;;;4990918;28;20206;-92
2022/08/12 15:22:29;;;;;;;6.82;4.78;;;41.50;23.10;;;;;;4971524;28;20214;-92
2022/08/12 15:24:57;;;;;;;6.35;4.38;;;41.40;23.40;;;;;;4970930;28;20226;-92
2022/08/12 15:27:27;;;;;;;8.63;4.82;;;41.20;23.60;;;;;;4971670;28;20706;-93
2022/08/12 15:29:54;;;;;;;8.13;4.90;;;41.00;24.10;;;;;;4977060;28;20214;-92
2022/08/12 15:32:21;;;;;;;7.82;5.20;;;40.90;25.20;;;;;;4978856;28;20215;-89